Delavan, Kansas
Current Conditions -  °F | °C
As of 9:58 AM on Tuesday 21 Oct 2014 (Local Time) from KFRI Reporting Station
Clear Clear  
Wind Chill: 52°   Ceiling: Unl
Heat Index: 52°   Visibility: 10mi
Dew Point: 50°   Wind: 3mph
Humidity: 91%   Direction: 20°NNE
Pressure: 30.13"   Gusts: NA
Location:  38.7322°N, 97.0904°W
Report Text: KFRI 211458Z AUTO 02003KT 10SM CLR 11/10 A3013 RMK AO2 SLP203 T01130098 52008
Loading
Personal Weather Stations






























Interactive Weather Map
Tropical Storm Tracking
New forecast layout! Learn more

10-Day Weather Forecast

Advertisements
Track Severe Weather on mobile